Bookmark and Share
Track history (hours):
 

Robert G. Stone, Jr.

More information available from US FCC via Universal Licensing System and Coast Guard Vessel Documentation Center.

Last reported at 2014-Apr-02 19:08 UTC. Time now 2014-Apr-24 06:26 UTC.
Position N 29°34' W 090°57'.
Warning: this ship's position is 21 days out of date.

Length 27 m; draft 3.1 m.

Type: Towing. MMSI: 367146780.

NotesDate/timePositionNaut miles runAvg speedWind from/ knotsBaromVisibWave heightAir tempDewpointWater temp
2014-Apr-02 19:08N 29°34' W 090°57'3 5.3
2014-Apr-02 18:32N 29°37' W 090°59'4 4.5
2014-Apr-02 17:33N 29°37' W 091°04'4 4.3
2014-Apr-02 16:33N 29°40' W 091°08'3 3.3
2014-Apr-02 15:33N 29°41' W 091°12'2 2.1
2014-Apr-02 14:33N 29°40' W 091°14'5 4.9
2014-Apr-02 13:33N 29°38' W 091°19'1 1.1
2014-Apr-02 12:33N 29°38' W 091°20'0 0.0
2014-Apr-02 11:33N 29°38' W 091°20'1 1.5
2014-Apr-02 10:33N 29°39' W 091°22'5 4.6
2014-Apr-02 09:29N 29°40' W 091°27'5 4.9
2014-Apr-02 08:32N 29°42' W 091°32'  
2014-Mar-30 15:07N 29°13' W 095°12'6 6.2
2014-Mar-30 14:11N 29°11' W 095°06'6 7.9
2014-Mar-30 13:28N 29°14' W 095°01'3 3.7
2014-Mar-30 12:33N 29°17' W 094°59'1 0.0
2014-Mar-29 15:33N 29°17' W 094°58'7 6.8
2014-Mar-29 14:33N 29°20' W 094°51'8 8.3
2014-Mar-29 13:33N 29°28' W 094°51'10 9.8
2014-Mar-29 12:33N 29°37' W 094°57'8 8.4
2014-Mar-29 11:33N 29°44' W 095°02'4 0.5
2014-Mar-29 04:19N 29°46' W 095°05'2 0.3
2014-Mar-28 22:29N 29°47' W 095°04'4 3.9
2014-Mar-28 21:33N 29°44' W 095°02'10 9.9
2014-Mar-28 20:30N 29°35' W 094°56'13 0.6
2014-Mar-27 22:09N 29°22' W 094°55'0 0.1
2014-Mar-27 21:33N 29°22' W 094°55'0 0.0
2014-Mar-27 20:29N 29°22' W 094°55'0 0.0
2014-Mar-27 19:29N 29°22' W 094°55'0 0.0
2014-Mar-27 16:32N 29°22' W 094°55'0 0.0
2014-Mar-27 15:33N 29°22' W 094°55'7 0.5
2014-Mar-27 00:33N 29°28' W 094°51'8 7.8
2014-Mar-26 23:33N 29°35' W 094°56'15 4.8
2014-Mar-26 20:33N 29°47' W 095°04'0 0.0
2014-Mar-26 19:33N 29°47' W 095°04'0 0.1
2014-Mar-26 17:33N 29°47' W 095°04'0 0.0
2014-Mar-26 16:26N 29°47' W 095°04'0 0.0
2014-Mar-26 15:31N 29°47' W 095°04'1 1.1
2014-Mar-26 14:33N 29°46' W 095°05'1 0.4
2014-Mar-26 11:25N 29°45' W 095°06'2 2.0
2014-Mar-26 10:31N 29°47' W 095°05'3 0.3
2014-Mar-26 00:29N 29°44' W 095°03'7 7.1
2014-Mar-25 23:33N 29°40' W 094°58'8 8.2
2014-Mar-25 22:33N 29°32' W 094°54'11 4.9
2014-Mar-25 20:15N 29°24' W 094°45'  

Dump ship's entire track history

sailing weather and tide predictions

Robert G. Stone, Jr. — WDD4596 — position and weather